createdAt,value
2019-05-12T00:01:35.085Z,95040.77
2019-05-12T00:04:42.384Z,95041.30
2019-05-12T00:07:50.058Z,95048.21
2019-05-12T00:10:58.245Z,95043.53
2019-05-12T00:14:08.455Z,95045.27
2019-05-12T00:17:15.100Z,95045.95
2019-05-12T00:20:22.422Z,95044.91
2019-05-12T00:23:31.202Z,95047.70
2019-05-12T00:26:40.955Z,95043.67
2019-05-12T00:29:48.640Z,95041.30
2019-05-12T00:32:58.067Z,95042.50
2019-05-12T00:36:05.372Z,95039.89
2019-05-12T00:39:12.768Z,95043.94
2019-05-12T00:42:20.650Z,95043.73
2019-05-12T00:45:29.225Z,95045.72
2019-05-12T00:48:37.568Z,95041.73
2019-05-12T00:51:45.261Z,95047.64
2019-05-12T00:54:52.831Z,95045.56
2019-05-12T00:58:01.193Z,95043.82
2019-05-12T01:01:08.492Z,95045.36
2019-05-12T01:04:17.598Z,95047.03
2019-05-12T01:07:25.079Z,95051.98
2019-05-12T01:10:32.807Z,95052.92
2019-05-12T01:13:40.301Z,95049.77
2019-05-12T01:16:48.637Z,95051.00
2019-05-12T01:19:58.420Z,95065.20
2019-05-12T01:23:08.223Z,95061.69
2019-05-12T01:26:14.910Z,95078.63
2019-05-12T01:29:22.299Z,95078.13
2019-05-12T01:32:34.286Z,95082.09
2019-05-12T01:35:42.087Z,95087.13
2019-05-12T01:38:49.591Z,95095.70
2019-05-12T01:41:58.662Z,95099.30
2019-05-12T01:45:09.205Z,95111.20
2019-05-12T01:48:18.311Z,95116.88
2019-05-12T01:51:28.326Z,95118.53
2019-05-12T01:54:35.254Z,95124.30
2019-05-12T01:57:42.421Z,95123.24
2019-05-12T02:00:50.350Z,95130.32
2019-05-12T02:04:02.746Z,95120.53
2019-05-12T02:07:10.208Z,95127.50
2019-05-12T02:10:18.614Z,95130.28
2019-05-12T02:13:27.718Z,95137.70
2019-05-12T02:16:35.173Z,95137.08
2019-05-12T02:19:42.476Z,95142.85
2019-05-12T02:22:50.637Z,95144.02
2019-05-12T02:25:58.561Z,95142.31
2019-05-12T02:29:07.854Z,95145.81
2019-05-12T02:32:16.008Z,95147.98
2019-05-12T02:35:24.757Z,95158.67
2019-05-12T02:38:33.415Z,95164.97
2019-05-12T02:41:41.081Z,95166.00
2019-05-12T02:44:48.374Z,95174.56
2019-05-12T02:47:55.735Z,95176.48
2019-05-12T02:51:05.554Z,95182.44
2019-05-12T02:54:14.520Z,95179.55
2019-05-12T02:57:25.530Z,95187.70
2019-05-12T03:00:35.562Z,95190.45
2019-05-12T03:03:46.279Z,95194.53
2019-05-12T03:06:55.698Z,95201.63
2019-05-12T03:10:05.545Z,95207.27
2019-05-12T03:13:14.929Z,95206.05
2019-05-12T03:16:25.653Z,95210.79
2019-05-12T03:19:34.540Z,95220.08
2019-05-12T03:22:44.901Z,95227.91
2019-05-12T03:25:54.561Z,95227.48
2019-05-12T03:29:01.111Z,95240.03
2019-05-12T03:32:08.935Z,95240.31
2019-05-12T03:35:17.879Z,95251.28
2019-05-12T03:38:27.686Z,95254.74
2019-05-12T03:41:35.075Z,95262.81
2019-05-12T03:44:44.521Z,95266.05
2019-05-12T03:47:54.801Z,95272.29
2019-05-12T03:51:01.145Z,95277.92
2019-05-12T03:54:08.320Z,95282.53
2019-05-12T03:57:15.520Z,95292.76
2019-05-12T04:00:24.704Z,95296.18
2019-05-12T04:03:34.573Z,95304.45
2019-05-12T04:06:41.213Z,95307.23
2019-05-12T04:09:49.091Z,95315.82
2019-05-12T04:12:56.375Z,95324.70
2019-05-12T04:16:05.031Z,95328.50
2019-05-12T04:19:14.653Z,95328.50
2019-05-12T04:22:24.909Z,95332.27
2019-05-12T04:25:47.713Z,95340.91
2019-05-12T04:28:40.954Z,95350.27
2019-05-12T04:31:48.581Z,95355.25
2019-05-12T04:34:55.745Z,95361.56
2019-05-12T04:38:04.400Z,95373.99
2019-05-12T04:41:14.616Z,95379.52
2019-05-12T04:44:24.865Z,95386.23
2019-05-12T04:47:34.690Z,95399.59
2019-05-12T04:50:40.125Z,95408.20
2019-05-12T04:53:47.305Z,95420.34
2019-05-12T04:56:55.285Z,95429.03
2019-05-12T05:00:05.125Z,95436.53
2019-05-12T05:03:14.143Z,95442.70
2019-05-12T05:06:21.701Z,95449.59
2019-05-12T05:09:29.102Z,95461.98
2019-05-12T05:12:36.814Z,95474.45
2019-05-12T05:15:44.761Z,95484.22
2019-05-12T05:18:53.826Z,95486.39
2019-05-12T05:22:01.744Z,95494.04
2019-05-12T05:25:09.245Z,95505.04
2019-05-12T05:28:16.671Z,95514.75
2019-05-12T05:31:24.444Z,95524.59
2019-05-12T05:34:34.253Z,95529.88
2019-05-12T05:37:44.237Z,95535.55
2019-05-12T05:40:54.156Z,95545.84
2019-05-12T05:44:03.130Z,95555.16
2019-05-12T05:47:10.789Z,95552.41
2019-05-12T05:50:23.151Z,95561.62
2019-05-12T05:53:59.876Z,95570.05
2019-05-12T05:57:07.260Z,95574.53
2019-05-12T06:00:22.635Z,95579.03
2019-05-12T06:03:28.220Z,95586.11
2019-05-12T06:06:35.928Z,95594.16
2019-05-12T06:09:44.194Z,95593.20
2019-05-12T06:12:54.131Z,95599.98
2019-05-12T06:16:04.191Z,95605.84
2019-05-12T06:19:13.921Z,95613.73
2019-05-12T06:22:23.654Z,95622.41
2019-05-12T06:25:45.026Z,95628.22
2019-05-12T06:28:41.292Z,95629.59
2019-05-12T06:31:49.277Z,95625.49
2019-05-12T06:35:01.386Z,95640.39
2019-05-12T06:38:06.183Z,95641.91
2019-05-12T06:41:20.612Z,95646.36
2019-05-12T06:44:24.033Z,95646.29
2019-05-12T06:47:34.146Z,95652.19
2019-05-12T06:50:41.096Z,95658.19
2019-05-12T06:53:48.673Z,95656.10
2019-05-12T06:57:16.558Z,95660.56
2019-05-12T07:00:05.996Z,95680.25
2019-05-12T07:03:19.435Z,95686.45
2019-05-12T07:06:24.910Z,95692.97
2019-05-12T07:09:35.338Z,95691.62
2019-05-12T07:12:57.689Z,95694.76
2019-05-12T07:15:54.429Z,95699.50
2019-05-12T07:19:07.683Z,95696.13
2019-05-12T07:22:19.873Z,95705.03
2019-05-12T07:25:22.888Z,95706.70
2019-05-12T07:28:35.099Z,95711.52
2019-05-12T07:31:40.665Z,95708.80
2019-05-12T07:34:48.282Z,95728.53
2019-05-12T07:37:57.793Z,95724.23
2019-05-12T07:41:09.505Z,95729.23
2019-05-12T07:44:22.261Z,95732.61
2019-05-12T07:47:29.728Z,95738.30
2019-05-12T07:50:37.877Z,95747.67
2019-05-12T07:53:54.597Z,95746.94
2019-05-12T07:56:54.916Z,95746.08
2019-05-12T08:00:03.691Z,95750.89
2019-05-12T08:03:16.009Z,95758.17
2019-05-12T08:06:21.433Z,95755.72
2019-05-12T08:09:32.264Z,95758.09
2019-05-12T08:12:38.617Z,95763.27
2019-05-12T08:15:50.244Z,95765.30
2019-05-12T08:18:55.540Z,95771.36
2019-05-12T08:22:04.452Z,95765.41
2019-05-12T08:25:13.464Z,95779.14
2019-05-12T08:28:27.827Z,95778.58
2019-05-12T08:31:33.200Z,95791.98
2019-05-12T08:34:43.585Z,95789.05
2019-05-12T08:37:50.589Z,95796.95
2019-05-12T08:41:00.200Z,95804.02
2019-05-12T08:44:07.806Z,95806.55
2019-05-12T08:47:15.637Z,95811.97
2019-05-12T08:50:31.287Z,95814.23
2019-05-12T08:53:33.670Z,95822.70
2019-05-12T08:56:41.080Z,95826.36
2019-05-12T08:59:48.561Z,95837.68
2019-05-12T09:02:56.877Z,95840.76
2019-05-12T09:06:09.224Z,95848.54
2019-05-12T09:09:14.594Z,95847.08
2019-05-12T09:12:23.295Z,95860.65
2019-05-12T09:15:30.624Z,95871.70
2019-05-12T09:18:39.310Z,95874.73
2019-05-12T09:21:46.649Z,95875.70
2019-05-12T09:24:58.479Z,95886.62
2019-05-12T09:28:03.965Z,95883.09
2019-05-12T09:31:13.979Z,95890.12
2019-05-12T09:34:20.774Z,95896.09
2019-05-12T09:37:30.996Z,95897.16
2019-05-12T09:40:37.476Z,95906.22
2019-05-12T09:43:48.365Z,95907.74
2019-05-12T09:46:53.993Z,95908.65
2019-05-12T09:50:04.259Z,95915.23
2019-05-12T09:53:11.736Z,95915.28
2019-05-12T09:56:19.019Z,95916.63
2019-05-12T09:59:26.233Z,95920.72
2019-05-12T10:02:33.538Z,95921.32
2019-05-12T10:05:41.453Z,95924.42
2019-05-12T10:08:49.212Z,95930.53
2019-05-12T10:12:00.611Z,95937.38
2019-05-12T10:15:07.182Z,95934.72
2019-05-12T10:18:15.210Z,95946.36
2019-05-12T10:21:23.783Z,95945.40
2019-05-12T10:24:40.547Z,95935.58
2019-05-12T10:27:44.085Z,95936.47
2019-05-12T10:30:55.225Z,95946.90
2019-05-12T10:34:18.972Z,95949.22
2019-05-12T10:37:29.310Z,95952.22
2019-05-12T10:40:36.042Z,95960.42
2019-05-12T10:43:48.421Z,95962.94
2019-05-12T10:46:55.818Z,95966.77
2019-05-12T10:50:04.011Z,95957.39
2019-05-12T10:53:15.569Z,95964.38
2019-05-12T10:56:20.726Z,95968.32
2019-05-12T10:59:33.222Z,95970.78
2019-05-12T11:02:37.655Z,95983.25
2019-05-12T11:05:45.127Z,95974.88
2019-05-12T11:08:54.113Z,95976.44
2019-05-12T11:12:03.376Z,95977.25
2019-05-12T11:15:13.607Z,95974.16
2019-05-12T11:18:26.072Z,95982.74
2019-05-12T11:21:33.529Z,95989.86
2019-05-12T11:24:40.782Z,95992.39
2019-05-12T11:27:48.347Z,95996.11
2019-05-12T11:30:55.742Z,95999.17
2019-05-12T11:34:04.837Z,96004.41
2019-05-12T11:37:13.856Z,96002.44
2019-05-12T11:40:21.143Z,96001.64
2019-05-12T11:43:29.887Z,96008.17
2019-05-12T11:46:37.787Z,96017.13
2019-05-12T11:49:45.584Z,96014.86
2019-05-12T11:52:53.505Z,96019.98
2019-05-12T11:56:02.245Z,96027.11
2019-05-12T11:59:10.621Z,96025.27
2019-05-12T12:02:20.231Z,96028.09
2019-05-12T12:05:28.817Z,96027.42
2019-05-12T12:08:37.384Z,96032.59
2019-05-12T12:11:44.877Z,96038.41
2019-05-12T12:14:53.657Z,96037.59
2019-05-12T12:18:03.832Z,96045.11
2019-05-12T12:21:10.640Z,96049.60
2019-05-12T12:24:21.381Z,96056.11
2019-05-12T12:27:27.060Z,96059.49
2019-05-12T12:30:34.748Z,96052.09
2019-05-12T12:33:46.849Z,96051.97
2019-05-12T12:36:54.182Z,96055.17
2019-05-12T12:40:01.133Z,96061.70
2019-05-12T12:43:08.395Z,96061.50
2019-05-12T12:46:24.393Z,96064.45
2019-05-12T12:49:33.963Z,96069.88
2019-05-12T12:52:46.856Z,96073.73
2019-05-12T12:55:53.593Z,96069.83
2019-05-12T12:59:09.918Z,96075.96
2019-05-12T13:02:11.322Z,96070.42
2019-05-12T13:05:19.026Z,96084.58
2019-05-12T13:08:27.151Z,96081.84
2019-05-12T13:11:35.085Z,96082.23
2019-05-12T13:14:44.310Z,96083.23
2019-05-12T13:17:52.232Z,96078.55
2019-05-12T13:20:59.862Z,96085.52
2019-05-12T13:24:07.391Z,96079.23
2019-05-12T13:27:19.200Z,96077.86
2019-05-12T13:30:24.594Z,96077.73
2019-05-12T13:33:33.864Z,96080.84
2019-05-12T13:36:43.956Z,96081.91
2019-05-12T13:39:57.026Z,96091.50
2019-05-12T13:43:00.677Z,96085.98
2019-05-12T13:46:08.355Z,96087.30
2019-05-12T13:49:16.082Z,96085.70
2019-05-12T13:52:26.283Z,96087.72
2019-05-12T13:55:34.298Z,96090.14
2019-05-12T13:58:43.648Z,96098.55
2019-05-12T14:01:53.933Z,96099.27
2019-05-12T14:05:07.226Z,96100.88
2019-05-12T14:08:14.451Z,96103.25
2019-05-12T14:11:23.970Z,96106.92
2019-05-12T14:14:31.136Z,96100.99
2019-05-12T14:17:40.500Z,96099.21
2019-05-12T14:20:50.836Z,96101.59
2019-05-12T14:23:57.867Z,96109.83
2019-05-12T14:27:05.320Z,96114.56
2019-05-12T14:30:14.693Z,96119.64
2019-05-12T14:33:24.363Z,96120.95
2019-05-12T14:37:04.229Z,96119.66
2019-05-12T14:40:01.592Z,96123.92
2019-05-12T14:43:10.405Z,96127.04
2019-05-12T14:46:18.693Z,96126.83
2019-05-12T14:49:30.355Z,96124.75
2019-05-12T14:52:35.148Z,96124.72
2019-05-12T14:55:42.730Z,96129.98
2019-05-12T14:58:55.558Z,96132.84
2019-05-12T15:02:03.367Z,96140.45
2019-05-12T15:05:11.026Z,96134.63
2019-05-12T15:08:21.065Z,96136.16
2019-05-12T15:11:28.457Z,96141.81
2019-05-12T15:14:37.923Z,96139.94
2019-05-12T15:17:44.979Z,96146.38
2019-05-12T15:20:54.290Z,96149.39
2019-05-12T15:24:03.937Z,96149.25
2019-05-12T15:27:13.419Z,96147.47
2019-05-12T15:30:25.960Z,96154.23
2019-05-12T15:33:33.552Z,96154.10
2019-05-12T15:36:52.193Z,96157.23
2019-05-12T15:39:54.284Z,96162.95
2019-05-12T15:43:05.506Z,96165.05
2019-05-12T15:46:13.462Z,96172.32
2019-05-12T15:49:26.203Z,96170.09
2019-05-12T15:53:06.854Z,96174.68
2019-05-12T15:56:22.745Z,96177.33
2019-05-12T15:59:58.517Z,96180.95
2019-05-12T16:03:06.630Z,96184.58
2019-05-12T16:06:15.053Z,96185.59
2019-05-12T16:09:23.767Z,96179.29
2019-05-12T16:12:34.169Z,96186.42
2019-05-12T16:15:40.899Z,96194.36
2019-05-12T16:18:50.738Z,96192.95
2019-05-12T16:21:58.384Z,96192.84
2019-05-12T16:25:06.342Z,96198.13
2019-05-12T16:28:22.716Z,96202.56
2019-05-12T16:31:24.396Z,96205.95
2019-05-12T16:34:38.529Z,96202.11
2019-05-12T16:37:43.960Z,96204.40
2019-05-12T16:40:53.504Z,96204.48
2019-05-12T16:44:07.559Z,96216.28
2019-05-12T16:47:13.229Z,96223.52
2019-05-12T16:50:27.373Z,96215.58
2019-05-12T16:53:30.548Z,96222.02
2019-05-12T16:56:38.194Z,96230.28
2019-05-12T16:59:45.570Z,96232.58
2019-05-12T17:02:57.814Z,96229.20
2019-05-12T17:06:03.579Z,96231.31
2019-05-12T17:09:13.307Z,96232.91
2019-05-12T17:12:23.875Z,96244.16
2019-05-12T17:15:29.889Z,96240.30
2019-05-12T17:18:37.865Z,96241.77
2019-05-12T17:21:49.449Z,96244.20
2019-05-12T17:24:54.238Z,96244.73
2019-05-12T17:28:03.637Z,96243.17
2019-05-12T17:31:11.246Z,96259.27
2019-05-12T17:34:18.951Z,96257.97
2019-05-12T17:37:26.310Z,96267.08
2019-05-12T17:40:34.044Z,96264.39
2019-05-12T17:43:51.993Z,96270.14
2019-05-12T17:46:54.104Z,96274.28
2019-05-12T17:50:06.754Z,96271.33
2019-05-12T17:53:13.637Z,96280.36
2019-05-12T17:56:25.288Z,96285.92
2019-05-12T17:59:30.184Z,96291.53
2019-05-12T18:02:37.994Z,96287.04
2019-05-12T18:05:48.032Z,96291.73
2019-05-12T18:08:55.900Z,96302.95
2019-05-12T18:12:04.263Z,96302.73
2019-05-12T18:15:15.009Z,96313.82
2019-05-12T18:18:31.153Z,96307.32
2019-05-12T18:21:34.049Z,96309.12
2019-05-12T18:24:49.056Z,96318.68
2019-05-12T18:27:51.216Z,96324.04
2019-05-12T18:30:58.935Z,96320.87
2019-05-12T18:34:06.427Z,96322.03
2019-05-12T18:37:14.221Z,96332.07
2019-05-12T18:40:24.107Z,96338.70
2019-05-12T18:43:31.301Z,96334.19
2019-05-12T18:46:44.891Z,96343.45
2019-05-12T18:49:50.199Z,96338.75
2019-05-12T18:52:57.702Z,96345.11
2019-05-12T18:56:10.164Z,96341.96
2019-05-12T18:59:16.438Z,96344.34
2019-05-12T19:02:28.335Z,96340.41
2019-05-12T19:05:34.561Z,96343.27
2019-05-12T19:08:42.799Z,96339.58
2019-05-12T19:11:50.267Z,96340.68
2019-05-12T19:14:57.845Z,96345.14
2019-05-12T19:18:05.403Z,96351.26
2019-05-12T19:21:16.757Z,96349.36
2019-05-12T19:24:22.603Z,96345.66
2019-05-12T19:27:30.515Z,96352.50
2019-05-12T19:30:38.169Z,96348.56
2019-05-12T19:33:53.305Z,96344.62
2019-05-12T19:36:55.350Z,96348.05
2019-05-12T19:40:11.729Z,96350.69
2019-05-12T19:43:14.132Z,96348.28
2019-05-12T19:46:24.000Z,96351.44
2019-05-12T19:49:45.981Z,96359.64
2019-05-12T19:52:41.668Z,96355.38
2019-05-12T19:55:49.128Z,96361.71
2019-05-12T19:58:57.133Z,96363.87
2019-05-12T20:02:04.421Z,96365.42
2019-05-12T20:05:16.747Z,96368.88
2019-05-12T20:08:21.611Z,96369.91
2019-05-12T20:11:31.344Z,96365.69
2019-05-12T20:14:38.908Z,96372.52
2019-05-12T20:17:48.763Z,96368.60
2019-05-12T20:20:55.908Z,96368.84
2019-05-12T20:24:03.875Z,96370.41
2019-05-12T20:27:17.236Z,96373.08
2019-05-12T20:30:21.223Z,96373.64
2019-05-12T20:33:28.890Z,96374.97
2019-05-12T20:36:36.112Z,96370.73
2019-05-12T20:39:44.623Z,96379.18
2019-05-12T20:43:07.318Z,96380.22
2019-05-12T20:46:01.009Z,96380.73
2019-05-12T20:49:12.050Z,96382.36
2019-05-12T20:52:18.048Z,96383.92
2019-05-12T20:55:29.947Z,96394.22
2019-05-12T20:58:41.026Z,96392.37
2019-05-12T21:01:44.527Z,96394.99
2019-05-12T21:05:00.558Z,96394.98
2019-05-12T21:08:03.296Z,96400.80
2019-05-12T21:11:10.783Z,96400.03
2019-05-12T21:14:18.112Z,96402.64
2019-05-12T21:17:39.698Z,96408.97
2019-05-12T21:20:35.439Z,96409.77
2019-05-12T21:23:45.561Z,96411.11
2019-05-12T21:26:54.172Z,96412.18
2019-05-12T21:30:09.866Z,96414.03
2019-05-12T21:33:11.200Z,96418.77
2019-05-12T21:36:24.338Z,96417.19
2019-05-12T21:39:29.158Z,96426.13
2019-05-12T21:42:36.666Z,96426.66
2019-05-12T21:45:44.374Z,96419.55
2019-05-12T21:48:53.164Z,96417.44
2019-05-12T21:52:04.136Z,96416.38
2019-05-12T21:55:13.566Z,96420.36
2019-05-12T21:58:20.169Z,96420.61
2019-05-12T22:01:27.807Z,96423.52
2019-05-12T22:04:41.223Z,96426.94
2019-05-12T22:07:45.336Z,96423.78
2019-05-12T22:10:54.156Z,96431.42
2019-05-12T22:14:04.456Z,96430.89
2019-05-12T22:17:13.515Z,96431.69
2019-05-12T22:20:20.300Z,96429.59
2019-05-12T22:23:28.537Z,96429.60
2019-05-12T22:26:39.719Z,96436.19
2019-05-12T22:29:45.370Z,96431.42
2019-05-12T22:32:54.104Z,96430.64
2019-05-12T22:36:06.271Z,96429.58
2019-05-12T22:39:11.675Z,96433.02
2019-05-12T22:42:21.639Z,96438.03
2019-05-12T22:45:28.486Z,96435.91
2019-05-12T22:48:40.333Z,96427.73
2019-05-12T22:51:46.641Z,96431.70
2019-05-12T22:54:54.564Z,96432.22
2019-05-12T22:58:02.486Z,96439.08
2019-05-12T23:01:09.997Z,96435.91
2019-05-12T23:04:17.319Z,96440.66
2019-05-12T23:07:29.567Z,96441.97
2019-05-12T23:10:34.432Z,96441.97
2019-05-12T23:13:42.847Z,96440.13
2019-05-12T23:16:50.367Z,96444.34
2019-05-12T23:19:58.026Z,96444.63
2019-05-12T23:23:09.060Z,96446.72
2019-05-12T23:26:14.615Z,96444.35
2019-05-12T23:29:29.431Z,96448.83
2019-05-12T23:32:31.313Z,96450.42
2019-05-12T23:35:39.731Z,96451.22
2019-05-12T23:38:53.214Z,96448.31
2019-05-12T23:41:56.956Z,96435.92
2019-05-12T23:45:04.641Z,96434.08
2019-05-12T23:48:14.296Z,96440.66
2019-05-12T23:51:23.551Z,96441.97
2019-05-12T23:54:31.045Z,96441.72
2019-05-12T23:57:38.757Z,96434.06
